createdAt,value
2024-04-18T00:00:55.234Z,3.27
2024-04-18T00:03:22.970Z,2.93
2024-04-18T00:05:55.725Z,3.27
2024-04-18T00:08:23.326Z,3.70
2024-04-18T00:10:55.929Z,3.70
2024-04-18T00:13:38.309Z,3.33
2024-04-18T00:16:09.290Z,3.50
2024-04-18T00:18:36.919Z,3.27
2024-04-18T00:21:28.433Z,3.60
2024-04-18T00:23:56.147Z,3.47
2024-04-18T00:26:46.366Z,3.13
2024-04-18T00:29:15.529Z,3.50
2024-04-18T00:31:45.895Z,3.20
2024-04-18T00:34:35.816Z,3.50
2024-04-18T00:37:06.313Z,3.67
2024-04-18T00:39:55.266Z,3.10
2024-04-18T00:42:39.054Z,2.97
2024-04-18T00:45:10.344Z,3.27
2024-04-18T00:47:44.875Z,3.13
2024-04-18T00:50:16.062Z,3.30
2024-04-18T00:52:47.883Z,3.00
2024-04-18T00:55:33.137Z,3.00
2024-04-18T00:58:11.724Z,3.20
2024-04-18T01:00:46.538Z,2.90
2024-04-18T01:03:36.319Z,3.53
2024-04-18T01:06:09.392Z,3.30
2024-04-18T01:09:02.994Z,3.60
2024-04-18T01:11:31.963Z,3.40
2024-04-18T01:14:11.950Z,4.03
2024-04-18T01:16:58.036Z,3.27
2024-04-18T01:19:28.255Z,3.53
2024-04-18T01:21:59.458Z,3.43
2024-04-18T01:24:35.051Z,3.60
2024-04-18T01:27:05.949Z,3.40
2024-04-18T01:29:46.078Z,3.53
2024-04-18T01:32:34.347Z,3.60
2024-04-18T01:35:04.688Z,3.40
2024-04-18T01:37:50.334Z,3.13
2024-04-18T01:40:18.229Z,3.73
2024-04-18T01:43:11.080Z,3.17
2024-04-18T01:45:58.562Z,3.37
2024-04-18T01:48:28.884Z,3.37
2024-04-18T01:51:15.102Z,3.40
2024-04-18T01:53:45.155Z,3.97
2024-04-18T01:56:18.935Z,3.67
2024-04-18T01:58:51.613Z,3.77
2024-04-18T02:01:25.095Z,3.00
2024-04-18T02:03:55.412Z,3.80
2024-04-18T02:06:23.006Z,3.97
2024-04-18T02:08:53.167Z,4.03
2024-04-18T02:11:45.016Z,3.63
2024-04-18T02:14:17.058Z,3.67
2024-04-18T02:16:47.387Z,3.70
2024-04-18T02:19:24.189Z,3.40
2024-04-18T02:22:12.770Z,3.67
2024-04-18T02:25:05.029Z,3.73
2024-04-18T02:27:35.284Z,4.67
2024-04-18T02:30:26.957Z,7.77
2024-04-18T02:33:13.905Z,5.00
2024-04-18T02:35:47.842Z,4.30
2024-04-18T02:38:37.246Z,4.63
2024-04-18T02:41:06.468Z,3.57
2024-04-18T02:43:53.076Z,3.83
2024-04-18T02:46:24.323Z,3.90
2024-04-18T02:49:13.223Z,4.33
2024-04-18T02:51:56.154Z,3.40
2024-04-18T02:54:45.208Z,4.10
2024-04-18T02:57:13.401Z,5.03
2024-04-18T02:59:43.710Z,6.00
2024-04-18T03:02:26.484Z,4.70
2024-04-18T03:05:16.671Z,4.53
2024-04-18T03:07:44.165Z,3.97
2024-04-18T03:10:14.234Z,4.20
2024-04-18T03:12:59.856Z,4.23
2024-04-18T03:15:48.875Z,4.03
2024-04-18T03:18:19.064Z,4.90
2024-04-18T03:20:55.948Z,4.50
2024-04-18T03:23:44.406Z,4.13
2024-04-18T03:26:31.801Z,4.23
2024-04-18T03:29:01.939Z,3.83
2024-04-18T03:31:31.964Z,4.17
2024-04-18T03:34:02.016Z,4.40
2024-04-18T03:36:34.342Z,4.20
2024-04-18T03:39:04.808Z,4.30
2024-04-18T03:41:34.916Z,4.13
2024-04-18T03:44:25.343Z,4.40
2024-04-18T03:46:55.506Z,4.73
2024-04-18T03:49:39.539Z,4.80
2024-04-18T03:52:07.406Z,4.40
2024-04-18T03:54:55.188Z,4.30
2024-04-18T03:57:40.979Z,5.30
2024-04-18T04:00:12.122Z,4.33
2024-04-18T04:02:40.956Z,4.70
2024-04-18T04:05:13.776Z,4.43
2024-04-18T04:07:41.327Z,4.33
2024-04-18T04:10:11.776Z,4.57
2024-04-18T04:12:41.158Z,4.57
2024-04-18T04:15:12.080Z,4.60
2024-04-18T04:17:59.662Z,4.40
2024-04-18T04:20:48.163Z,4.13
2024-04-18T04:23:15.810Z,4.40
2024-04-18T04:26:06.392Z,4.53
2024-04-18T04:28:33.945Z,4.13
2024-04-18T04:31:04.106Z,4.43
2024-04-18T04:33:33.944Z,4.57
2024-04-18T04:36:06.874Z,4.63
2024-04-18T04:38:34.321Z,5.03
2024-04-18T04:41:07.061Z,5.40
2024-04-18T04:43:34.510Z,9.97
2024-04-18T04:46:17.856Z,10.97
2024-04-18T04:48:45.432Z,8.33
2024-04-18T04:51:19.079Z,6.13
2024-04-18T04:54:04.755Z,12.77
2024-04-18T04:56:44.009Z,5.40
2024-04-18T04:59:20.179Z,6.43
2024-04-18T05:01:53.211Z,7.53
2024-04-18T05:04:40.911Z,5.93
2024-04-18T05:07:33.846Z,5.77
2024-04-18T05:10:20.118Z,4.67
2024-04-18T05:12:50.262Z,5.17
2024-04-18T05:15:36.255Z,4.63
2024-04-18T05:18:10.654Z,5.30
2024-04-18T05:20:38.949Z,4.87
2024-04-18T05:23:11.895Z,5.33
2024-04-18T05:25:39.518Z,5.83
2024-04-18T05:28:31.662Z,7.80
2024-04-18T05:31:03.393Z,6.43
2024-04-18T05:33:34.338Z,8.00
2024-04-18T05:36:04.803Z,6.70
2024-04-18T05:38:37.468Z,6.07
2024-04-18T05:41:08.001Z,4.97
2024-04-18T05:43:53.680Z,6.67
2024-04-18T05:46:23.978Z,5.53
2024-04-18T05:48:54.485Z,5.47
2024-04-18T05:51:24.881Z,6.63
2024-04-18T05:54:16.327Z,5.70
2024-04-18T05:57:04.730Z,5.30
2024-04-18T05:59:53.329Z,5.30
2024-04-18T06:02:23.432Z,5.00
2024-04-18T06:04:51.042Z,4.87
2024-04-18T06:07:41.222Z,4.90
2024-04-18T06:10:15.089Z,4.53
2024-04-18T06:12:45.320Z,4.30
2024-04-18T06:15:15.408Z,4.07
2024-04-18T06:17:45.638Z,2.90
2024-04-18T06:20:15.741Z,3.70
2024-04-18T06:22:45.988Z,3.83
2024-04-18T06:25:32.312Z,3.97
2024-04-18T06:28:02.788Z,3.17
2024-04-18T06:30:33.025Z,3.50
2024-04-18T06:33:03.433Z,3.10
2024-04-18T06:35:33.599Z,3.47
2024-04-18T06:38:03.708Z,3.20
2024-04-18T06:40:36.431Z,3.50
2024-04-18T06:43:06.754Z,3.57
2024-04-18T06:45:39.568Z,2.97
2024-04-18T06:48:11.724Z,2.97
2024-04-18T06:50:42.762Z,3.37
2024-04-18T06:53:13.518Z,3.53
2024-04-18T06:55:43.731Z,3.30
2024-04-18T06:58:13.771Z,4.23
2024-04-18T07:00:44.161Z,5.30
2024-04-18T07:03:17.149Z,5.27
2024-04-18T07:05:53.543Z,5.37
2024-04-18T07:08:28.094Z,4.97
2024-04-18T07:11:01.548Z,4.80
2024-04-18T07:13:33.389Z,4.73
2024-04-18T07:16:25.147Z,4.17
2024-04-18T07:18:58.658Z,4.17
2024-04-18T07:21:28.907Z,3.97
2024-04-18T07:24:18.008Z,4.00
2024-04-18T07:26:53.341Z,3.77
2024-04-18T07:29:25.135Z,3.87
2024-04-18T07:31:55.569Z,4.13
2024-04-18T07:34:25.731Z,4.23
2024-04-18T07:36:55.946Z,4.13
2024-04-18T07:39:26.194Z,3.77
2024-04-18T07:41:58.913Z,9.30
2024-04-18T07:44:28.981Z,6.97
2024-04-18T07:46:59.098Z,4.27
2024-04-18T07:49:29.307Z,4.43
2024-04-18T07:52:06.467Z,4.03
2024-04-18T07:54:42.453Z,3.60
2024-04-18T07:57:15.821Z,3.70
2024-04-18T07:59:47.036Z,4.37
2024-04-18T08:02:19.286Z,4.10
2024-04-18T08:04:55.968Z,4.17
2024-04-18T08:07:34.990Z,3.67
2024-04-18T08:10:11.239Z,3.73
2024-04-18T08:12:50.712Z,4.30
2024-04-18T08:18:13.632Z,4.23
2024-04-18T08:20:43.769Z,4.82
2024-04-18T08:23:20.607Z,4.23
2024-04-18T08:25:50.770Z,4.20
2024-04-18T08:28:23.421Z,3.83
2024-04-18T08:30:55.200Z,4.20
2024-04-18T08:33:25.387Z,4.10
2024-04-18T08:35:55.391Z,3.90
2024-04-18T08:38:25.872Z,4.20
2024-04-18T08:40:56.132Z,4.03
2024-04-18T08:43:29.013Z,3.70
2024-04-18T08:46:00.807Z,4.20
2024-04-18T08:48:35.128Z,3.63
2024-04-18T08:51:08.573Z,3.22
2024-04-18T08:53:38.779Z,3.95
2024-04-18T08:56:17.282Z,3.42
2024-04-18T08:58:50.031Z,3.93
2024-04-18T09:01:20.631Z,3.65
2024-04-18T09:03:50.673Z,3.35
2024-04-18T09:06:20.757Z,3.83
2024-04-18T09:08:53.376Z,3.65
2024-04-18T09:11:24.098Z,3.15
2024-04-18T09:13:56.803Z,3.60
2024-04-18T09:16:27.972Z,3.63
2024-04-18T09:18:58.069Z,3.30
2024-04-18T09:21:33.735Z,2.67
2024-04-18T09:24:04.089Z,2.85
2024-04-18T09:26:34.375Z,3.17
2024-04-18T09:29:07.288Z,2.72
2024-04-18T09:31:43.614Z,2.42
2024-04-18T09:34:17.864Z,2.08
2024-04-18T09:36:49.206Z,2.53
2024-04-18T09:39:29.097Z,2.40
2024-04-18T09:42:11.898Z,2.28
2024-04-18T09:44:47.640Z,2.72
2024-04-18T09:47:18.942Z,2.30
2024-04-18T09:49:51.180Z,2.60
2024-04-18T09:52:22.856Z,2.20
2024-04-18T09:54:55.064Z,3.17
2024-04-18T09:57:28.656Z,2.63
2024-04-18T10:00:03.088Z,2.47
2024-04-18T10:02:42.937Z,2.65
2024-04-18T10:05:13.330Z,3.00
2024-04-18T10:07:44.200Z,2.42
2024-04-18T10:10:15.481Z,2.88
2024-04-18T10:12:45.797Z,2.70
2024-04-18T10:15:21.472Z,2.60
2024-04-18T10:17:51.613Z,2.53
2024-04-18T10:20:21.714Z,2.60
2024-04-18T10:23:01.471Z,2.60
2024-04-18T10:25:31.660Z,1.63
2024-04-18T10:28:01.762Z,1.90
2024-04-18T10:30:35.658Z,2.30
2024-04-18T10:33:06.184Z,2.10
2024-04-18T10:35:36.581Z,1.92
2024-04-18T10:38:07.146Z,2.17
2024-04-18T10:40:38.128Z,2.20
2024-04-18T10:43:14.360Z,1.85
2024-04-18T10:45:48.901Z,2.17
2024-04-18T10:48:20.060Z,1.60
2024-04-18T10:50:53.132Z,1.60
2024-04-18T10:53:24.001Z,1.60
2024-04-18T10:55:55.702Z,1.20
2024-04-18T10:58:25.904Z,1.05
2024-04-18T11:01:04.950Z,1.40
2024-04-18T11:03:35.491Z,1.42
2024-04-18T11:06:06.532Z,1.52
2024-04-18T11:08:36.774Z,2.10
2024-04-18T11:11:07.649Z,1.38
2024-04-18T11:13:38.422Z,1.30
2024-04-18T11:16:11.253Z,1.45
2024-04-18T11:18:42.254Z,2.22
2024-04-18T11:21:12.668Z,1.27
2024-04-18T11:23:47.362Z,1.10
2024-04-18T11:26:22.488Z,1.13
2024-04-18T11:28:54.406Z,1.40
2024-04-18T11:31:27.338Z,1.50
2024-04-18T11:33:58.174Z,1.25
2024-04-18T11:36:29.385Z,1.70
2024-04-18T11:39:04.435Z,2.05
2024-04-18T11:41:34.971Z,1.73
2024-04-18T11:44:06.161Z,1.75
2024-04-18T11:46:38.773Z,1.80
2024-04-18T11:49:09.019Z,1.80
2024-04-18T11:51:39.145Z,2.20
2024-04-18T11:54:09.289Z,1.98
2024-04-18T11:56:39.475Z,1.38
2024-04-18T11:59:26.850Z,1.42
2024-04-18T12:01:59.480Z,1.33
2024-04-18T12:04:29.899Z,1.40
2024-04-18T12:07:00.088Z,1.60
2024-04-18T12:09:30.568Z,2.05
2024-04-18T12:12:03.483Z,1.42
2024-04-18T12:14:48.966Z,2.03
2024-04-18T12:17:34.586Z,2.35
2024-04-18T12:20:20.998Z,2.42
2024-04-18T12:22:51.049Z,1.80
2024-04-18T12:25:22.337Z,1.40
2024-04-18T12:27:50.915Z,1.40
2024-04-18T12:30:34.339Z,1.80
2024-04-18T12:33:25.477Z,2.70
2024-04-18T12:35:55.891Z,3.10
2024-04-18T12:38:26.039Z,2.78
2024-04-18T12:41:05.598Z,3.22
2024-04-18T12:43:36.947Z,3.58
2024-04-18T12:46:27.342Z,2.92
2024-04-18T12:49:00.442Z,3.85
2024-04-18T12:51:30.735Z,4.32
2024-04-18T12:54:00.877Z,5.07
2024-04-18T12:56:50.775Z,4.80
2024-04-18T12:59:27.187Z,3.13
2024-04-18T13:01:57.646Z,3.00
2024-04-18T13:04:32.513Z,3.65
2024-04-18T13:07:02.895Z,2.58
2024-04-18T13:09:33.645Z,2.90
2024-04-18T13:12:05.181Z,4.38
2024-04-18T13:14:54.040Z,2.72
2024-04-18T13:17:24.305Z,2.33
2024-04-18T13:19:57.176Z,2.42
2024-04-18T13:22:27.219Z,2.70
2024-04-18T13:24:57.338Z,2.58
2024-04-18T13:27:28.541Z,2.45
2024-04-18T13:29:58.692Z,2.53
2024-04-18T13:32:36.009Z,1.98
2024-04-18T13:35:10.151Z,2.25
2024-04-18T13:37:40.557Z,2.72
2024-04-18T13:40:20.005Z,2.17
2024-04-18T13:43:02.779Z,2.40
2024-04-18T13:45:34.786Z,2.03
2024-04-18T13:48:05.967Z,2.30
2024-04-18T13:50:49.146Z,2.38
2024-04-18T13:53:19.237Z,2.17
2024-04-18T13:55:51.550Z,2.30
2024-04-18T13:58:23.990Z,1.90
2024-04-18T14:01:03.016Z,2.30
2024-04-18T14:03:34.420Z,1.80
2024-04-18T14:06:12.422Z,1.45
2024-04-18T14:08:45.619Z,1.30
2024-04-18T14:11:32.011Z,1.60
2024-04-18T14:14:11.047Z,1.63
2024-04-18T14:17:17.151Z,1.80
2024-04-18T14:20:06.648Z,1.33
2024-04-18T14:22:50.475Z,1.90
2024-04-18T14:25:20.519Z,1.73
2024-04-18T14:28:20.224Z,1.48
2024-04-18T14:31:17.999Z,1.33
2024-04-18T14:33:51.163Z,1.85
2024-04-18T14:36:21.388Z,1.35
2024-04-18T14:38:54.096Z,1.60
2024-04-18T14:41:24.151Z,1.70
2024-04-18T14:43:57.638Z,1.90
2024-04-18T14:46:29.528Z,1.50
2024-04-18T14:49:19.444Z,2.05
2024-04-18T14:51:57.855Z,1.83
2024-04-18T14:54:33.663Z,3.35
2024-04-18T14:57:03.955Z,2.40
2024-04-18T14:59:39.982Z,2.60
2024-04-18T15:02:10.112Z,2.30
2024-04-18T15:05:00.503Z,1.63
2024-04-18T15:07:28.176Z,1.60
2024-04-18T15:10:00.948Z,1.65
2024-04-18T15:12:51.046Z,1.92
2024-04-18T15:15:26.747Z,1.90
2024-04-18T15:17:56.966Z,2.40
2024-04-18T15:20:27.090Z,2.55
2024-04-18T15:23:12.202Z,1.60
2024-04-18T15:25:44.976Z,1.35
2024-04-18T15:28:16.835Z,1.00
2024-04-18T15:30:47.268Z,1.02
2024-04-18T15:33:23.989Z,0.80
2024-04-18T15:35:55.983Z,1.05
2024-04-18T15:38:26.387Z,1.02
2024-04-18T15:41:18.758Z,0.75
2024-04-18T15:43:48.859Z,8.45
2024-04-18T15:46:37.441Z,0.60
2024-04-18T15:49:10.689Z,0.45
2024-04-18T15:51:40.979Z,1.42
2024-04-18T15:54:11.497Z,0.30
2024-04-18T15:56:44.171Z,0.30
2024-04-18T15:59:34.563Z,0.47
2024-04-18T16:02:09.866Z,0.77
2024-04-18T16:04:46.812Z,0.68
2024-04-18T16:07:16.991Z,0.70
2024-04-18T16:10:16.311Z,0.80
2024-04-18T16:12:58.142Z,1.25
2024-04-18T16:15:28.371Z,0.70
2024-04-18T16:18:04.474Z,0.85
2024-04-18T16:20:35.331Z,1.00
2024-04-18T16:23:06.930Z,0.80
2024-04-18T16:25:40.234Z,1.55
2024-04-18T16:28:13.536Z,1.40
2024-04-18T16:31:02.612Z,1.10
2024-04-18T16:33:32.817Z,1.33
2024-04-18T16:36:02.988Z,1.50
2024-04-18T16:38:52.998Z,1.40
2024-04-18T16:41:29.336Z,1.83
2024-04-18T16:44:02.141Z,1.92
2024-04-18T16:46:32.207Z,2.00
2024-04-18T16:49:02.303Z,2.13
2024-04-18T16:51:32.421Z,2.40
2024-04-18T16:54:02.538Z,2.00
2024-04-18T16:56:58.435Z,1.83
2024-04-18T16:59:50.616Z,1.70
2024-04-18T17:02:20.687Z,1.88
2024-04-18T17:04:48.217Z,2.00
2024-04-18T17:07:18.644Z,1.83
2024-04-18T17:10:08.853Z,2.03
2024-04-18T17:12:58.802Z,1.70
2024-04-18T17:15:54.319Z,2.10
2024-04-18T17:18:24.588Z,2.17
2024-04-18T17:21:01.881Z,1.92
2024-04-18T17:23:32.439Z,1.77
2024-04-18T17:26:02.528Z,1.77
2024-04-18T17:28:32.493Z,1.58
2024-04-18T17:31:08.347Z,1.70
2024-04-18T17:33:38.590Z,1.52
2024-04-18T17:36:10.126Z,1.65
2024-04-18T17:38:50.321Z,1.30
2024-04-18T17:41:32.666Z,1.67
2024-04-18T17:44:21.734Z,1.52
2024-04-18T17:47:02.239Z,1.67
2024-04-18T17:49:32.400Z,1.65
2024-04-18T17:52:02.539Z,1.48
2024-04-18T17:54:30.028Z,1.42
2024-04-18T17:57:00.034Z,1.23
2024-04-18T17:59:30.094Z,1.83
2024-04-18T18:02:02.937Z,1.70
2024-04-18T18:04:33.201Z,1.70
2024-04-18T18:07:03.308Z,1.90
2024-04-18T18:09:33.333Z,1.97
2024-04-18T18:12:03.306Z,2.17
2024-04-18T18:14:33.328Z,1.90
2024-04-18T18:17:06.120Z,2.38
2024-04-18T18:19:36.305Z,2.95
2024-04-18T18:22:07.101Z,2.40
2024-04-18T18:24:34.702Z,2.50
2024-04-18T18:27:06.215Z,2.03
2024-04-18T18:29:34.113Z,2.00
2024-04-18T18:32:14.956Z,2.20
2024-04-18T18:34:43.867Z,2.33
2024-04-18T18:37:13.910Z,2.30
2024-04-18T18:39:43.112Z,2.17
2024-04-18T18:42:13.570Z,2.10
2024-04-18T18:44:41.134Z,2.50
2024-04-18T18:47:13.835Z,3.70
2024-04-18T18:49:50.102Z,3.03
2024-04-18T18:52:21.964Z,5.57
2024-04-18T18:54:49.658Z,6.93
2024-04-18T18:57:19.754Z,4.83
2024-04-18T18:59:47.350Z,6.57
2024-04-18T19:02:20.047Z,4.90
2024-04-18T19:05:02.740Z,7.13
2024-04-18T19:07:32.937Z,5.67
2024-04-18T19:10:01.594Z,6.37
2024-04-18T19:12:31.626Z,4.13
2024-04-18T19:15:01.410Z,4.77
2024-04-18T19:17:37.898Z,4.30
2024-04-18T19:20:06.203Z,6.35
2024-04-18T19:22:36.318Z,3.97
2024-04-18T19:25:04.324Z,4.77
2024-04-18T19:27:34.495Z,4.93
2024-04-18T19:30:02.867Z,5.67
2024-04-18T19:32:35.632Z,8.23
2024-04-18T19:35:22.986Z,7.97
2024-04-18T19:37:53.110Z,6.20
2024-04-18T19:40:40.517Z,3.93
2024-04-18T19:43:11.054Z,3.90
2024-04-18T19:45:39.054Z,5.57
2024-04-18T19:51:05.093Z,5.40
2024-04-18T19:53:35.499Z,5.07
2024-04-18T19:56:03.481Z,3.50
2024-04-18T19:58:36.453Z,2.60
2024-04-18T20:01:06.795Z,2.60
2024-04-18T20:03:41.550Z,2.43
2024-04-18T20:06:09.840Z,2.60
2024-04-18T20:08:55.508Z,2.90
2024-04-18T20:11:23.128Z,3.30
2024-04-18T20:13:54.437Z,3.10
2024-04-18T20:16:22.457Z,3.73
2024-04-18T20:19:16.023Z,2.90
2024-04-18T20:21:44.979Z,3.37
2024-04-18T20:24:18.372Z,3.73
2024-04-18T20:27:05.527Z,4.53
2024-04-18T20:29:48.148Z,4.00
2024-04-18T20:32:22.071Z,7.30
2024-04-18T20:34:56.214Z,4.57
2024-04-18T20:37:25.555Z,4.60
2024-04-18T20:39:58.882Z,4.73
2024-04-18T20:42:27.438Z,4.83
2024-04-18T20:45:04.611Z,3.93
2024-04-18T20:47:32.855Z,3.70
2024-04-18T20:50:09.141Z,3.40
2024-04-18T20:52:38.457Z,4.37
2024-04-18T20:55:12.096Z,3.97
2024-04-18T20:57:39.756Z,3.87
2024-04-18T21:00:28.470Z,4.70
2024-04-18T21:02:57.038Z,4.60
2024-04-18T21:05:29.886Z,3.67
2024-04-18T21:07:57.621Z,4.30
2024-04-18T21:10:27.846Z,3.80
2024-04-18T21:12:55.354Z,4.00
2024-04-18T21:15:25.442Z,3.40
2024-04-18T21:17:55.147Z,3.70
2024-04-18T21:20:25.468Z,3.10
2024-04-18T21:22:55.724Z,3.33
2024-04-18T21:25:25.914Z,2.83
2024-04-18T21:27:53.608Z,2.73
2024-04-18T21:30:23.866Z,2.73
2024-04-18T21:32:54.341Z,2.67
2024-04-18T21:35:35.413Z,3.07
2024-04-18T21:38:05.907Z,3.50
2024-04-18T21:40:36.529Z,3.40
2024-04-18T21:43:04.733Z,3.60
2024-04-18T21:45:35.613Z,2.90
2024-04-18T21:48:05.040Z,2.70
2024-04-18T21:50:35.616Z,3.00
2024-04-18T21:53:08.908Z,2.70
2024-04-18T21:55:41.999Z,3.07
2024-04-18T21:58:09.703Z,2.90
2024-04-18T22:00:39.987Z,3.10
2024-04-18T22:03:07.753Z,4.07
2024-04-18T22:05:45.655Z,3.50
2024-04-18T22:08:17.672Z,3.10
2024-04-18T22:10:54.988Z,2.47
2024-04-18T22:13:28.065Z,2.57
2024-04-18T22:15:58.252Z,2.97
2024-04-18T22:18:26.949Z,2.97
2024-04-18T22:20:57.729Z,2.40
2024-04-18T22:23:27.963Z,2.53
2024-04-18T22:25:58.055Z,2.43
2024-04-18T22:28:25.610Z,3.73
2024-04-18T22:31:02.792Z,3.27
2024-04-18T22:33:30.321Z,2.70
2024-04-18T22:36:00.795Z,2.83
2024-04-18T22:38:30.875Z,2.20
2024-04-18T22:41:00.894Z,3.10
2024-04-18T22:43:28.250Z,2.70
2024-04-18T22:45:58.344Z,2.47
2024-04-18T22:48:25.827Z,2.47
2024-04-18T22:50:57.307Z,2.63
2024-04-18T22:53:24.765Z,2.33
2024-04-18T22:56:01.089Z,2.33
2024-04-18T22:58:28.585Z,2.00
2024-04-18T23:01:08.015Z,2.50
2024-04-18T23:03:35.672Z,2.33
2024-04-18T23:06:18.065Z,2.13
2024-04-18T23:08:45.567Z,2.53
2024-04-18T23:11:19.029Z,2.50
2024-04-18T23:13:46.619Z,2.07
2024-04-18T23:16:16.702Z,2.10
2024-04-18T23:18:44.631Z,2.47
2024-04-18T23:21:14.859Z,2.27
2024-04-18T23:23:42.531Z,2.80
2024-04-18T23:26:12.701Z,3.10
2024-04-18T23:28:43.605Z,2.33
2024-04-18T23:31:13.642Z,2.70
2024-04-18T23:33:41.027Z,2.50
2024-04-18T23:36:11.816Z,2.20
2024-04-18T23:38:41.870Z,2.20
2024-04-18T23:41:09.309Z,1.87
2024-04-18T23:43:39.360Z,2.70
2024-04-18T23:46:09.400Z,2.30
2024-04-18T23:48:39.598Z,2.43
2024-04-18T23:51:07.124Z,2.80
2024-04-18T23:53:41.895Z,2.43
2024-04-18T23:56:09.215Z,2.40
2024-04-18T23:58:39.415Z,2.30
